createdAt,value
2023-04-16T00:00:50.192Z,6.70
2023-04-16T00:03:17.046Z,6.60
2023-04-16T00:05:43.874Z,6.54
2023-04-16T00:08:10.548Z,6.50
2023-04-16T00:10:37.179Z,6.47
2023-04-16T00:13:04.868Z,6.46
2023-04-16T00:15:31.516Z,6.52
2023-04-16T00:17:58.168Z,6.54
2023-04-16T00:20:24.838Z,6.43
2023-04-16T00:22:51.349Z,6.37
2023-04-16T00:25:17.935Z,6.37
2023-04-16T00:27:44.539Z,6.40
2023-04-16T00:30:11.917Z,6.34
2023-04-16T00:32:38.501Z,6.31
2023-04-16T00:35:05.777Z,6.26
2023-04-16T00:37:32.322Z,6.26
2023-04-16T00:39:58.936Z,6.23
2023-04-16T00:42:25.592Z,6.23
2023-04-16T00:44:52.023Z,6.21
2023-04-16T00:47:19.837Z,6.27
2023-04-16T00:49:46.888Z,6.32
2023-04-16T00:52:13.528Z,6.29
2023-04-16T00:54:40.360Z,6.31
2023-04-16T00:57:06.814Z,6.31
2023-04-16T00:59:33.593Z,6.31
2023-04-16T01:02:00.542Z,6.35
2023-04-16T01:04:27.508Z,6.26
2023-04-16T01:06:54.995Z,6.25
2023-04-16T01:09:21.741Z,6.26
2023-04-16T01:11:48.307Z,6.27
2023-04-16T01:14:15.373Z,6.27
2023-04-16T01:16:42.101Z,6.33
2023-04-16T01:19:09.085Z,6.31
2023-04-16T01:21:36.114Z,6.35
2023-04-16T01:24:04.610Z,6.26
2023-04-16T01:26:31.703Z,6.22
2023-04-16T01:28:59.937Z,6.26
2023-04-16T01:31:26.906Z,6.33
2023-04-16T01:33:53.703Z,6.29
2023-04-16T01:36:20.683Z,6.29
2023-04-16T01:38:47.908Z,6.26
2023-04-16T01:41:14.909Z,6.25
2023-04-16T01:43:42.523Z,6.25
2023-04-16T01:46:16.056Z,6.21
2023-04-16T01:48:44.838Z,6.20
2023-04-16T01:51:14.306Z,6.10
2023-04-16T01:53:43.711Z,6.05
2023-04-16T01:56:13.829Z,6.00
2023-04-16T01:58:42.761Z,6.00
2023-04-16T02:01:09.800Z,5.94
2023-04-16T02:03:36.777Z,5.88
2023-04-16T02:06:04.288Z,5.80
2023-04-16T02:08:31.040Z,5.74
2023-04-16T02:10:58.353Z,5.71
2023-04-16T02:13:26.129Z,5.65
2023-04-16T02:15:53.013Z,5.56
2023-04-16T02:18:19.928Z,5.57
2023-04-16T02:20:47.983Z,5.61
2023-04-16T02:23:15.091Z,5.51
2023-04-16T02:25:43.203Z,5.43
2023-04-16T02:28:14.123Z,5.45
2023-04-16T02:30:40.912Z,5.43
2023-04-16T02:33:08.703Z,5.59
2023-04-16T02:35:35.630Z,5.62
2023-04-16T02:38:03.001Z,5.53
2023-04-16T02:40:30.027Z,5.43
2023-04-16T02:42:56.884Z,5.42
2023-04-16T02:45:24.191Z,5.44
2023-04-16T02:47:51.397Z,5.36
2023-04-16T02:50:18.458Z,5.32
2023-04-16T02:52:45.141Z,5.42
2023-04-16T02:55:11.911Z,5.30
2023-04-16T02:57:38.510Z,5.22
2023-04-16T03:00:05.581Z,5.15
2023-04-16T03:02:32.383Z,5.09
2023-04-16T03:04:58.976Z,5.11
2023-04-16T03:07:26.108Z,5.17
2023-04-16T03:09:52.782Z,5.04
2023-04-16T03:12:19.555Z,5.02
2023-04-16T03:14:46.392Z,4.94
2023-04-16T03:17:13.043Z,4.88
2023-04-16T03:19:39.664Z,4.76
2023-04-16T03:22:06.390Z,4.92
2023-04-16T03:24:33.069Z,4.86
2023-04-16T03:26:59.704Z,4.78
2023-04-16T03:29:27.292Z,4.73
2023-04-16T03:31:53.707Z,4.65
2023-04-16T03:34:20.450Z,4.66
2023-04-16T03:36:46.942Z,4.66
2023-04-16T03:39:13.650Z,4.57
2023-04-16T03:41:40.237Z,4.59
2023-04-16T03:44:06.901Z,4.61
2023-04-16T03:46:33.607Z,4.47
2023-04-16T03:49:00.437Z,4.41
2023-04-16T03:51:27.113Z,4.30
2023-04-16T03:53:53.834Z,4.28
2023-04-16T03:56:20.784Z,4.24
2023-04-16T03:58:47.452Z,4.19
2023-04-16T04:01:14.051Z,4.20
2023-04-16T04:03:41.110Z,4.17
2023-04-16T04:06:08.586Z,4.16
2023-04-16T04:08:35.254Z,4.14
2023-04-16T04:11:02.018Z,4.19
2023-04-16T04:13:28.734Z,4.15
2023-04-16T04:15:55.689Z,4.11
2023-04-16T04:18:22.464Z,4.19
2023-04-16T04:20:48.934Z,4.18
2023-04-16T04:23:15.767Z,4.13
2023-04-16T04:25:42.593Z,4.11
2023-04-16T04:28:09.089Z,4.09
2023-04-16T04:30:36.042Z,4.24
2023-04-16T04:33:02.574Z,4.42
2023-04-16T04:35:29.192Z,4.49
2023-04-16T04:37:55.792Z,4.54
2023-04-16T04:40:22.423Z,4.60
2023-04-16T04:42:49.051Z,4.54
2023-04-16T04:45:16.072Z,4.55
2023-04-16T04:47:42.755Z,4.65
2023-04-16T04:50:09.679Z,4.57
2023-04-16T04:52:36.307Z,4.53
2023-04-16T04:55:02.820Z,4.53
2023-04-16T04:57:29.522Z,4.57
2023-04-16T04:59:56.384Z,4.62
2023-04-16T05:02:23.075Z,4.60
2023-04-16T05:04:49.663Z,4.64
2023-04-16T05:07:16.491Z,4.67
2023-04-16T05:09:42.979Z,4.64
2023-04-16T05:12:09.473Z,4.67
2023-04-16T05:14:36.717Z,4.68
2023-04-16T05:17:03.441Z,4.74
2023-04-16T05:19:30.087Z,4.67
2023-04-16T05:21:56.556Z,4.69
2023-04-16T05:24:23.328Z,4.80
2023-04-16T05:26:49.979Z,4.84
2023-04-16T05:29:16.847Z,4.87
2023-04-16T05:31:44.224Z,4.82
2023-04-16T05:34:10.846Z,4.96
2023-04-16T05:36:37.345Z,4.94
2023-04-16T05:39:04.071Z,4.93
2023-04-16T05:41:30.991Z,5.09
2023-04-16T05:43:57.578Z,5.15
2023-04-16T05:46:24.087Z,5.06
2023-04-16T05:48:51.379Z,5.31
2023-04-16T05:51:18.190Z,5.29
2023-04-16T05:53:44.702Z,5.33
2023-04-16T05:56:11.420Z,5.43
2023-04-16T05:58:38.046Z,5.75
2023-04-16T06:01:05.191Z,6.06
2023-04-16T06:03:31.877Z,6.06
2023-04-16T06:05:58.968Z,6.35
2023-04-16T06:08:25.633Z,6.32
2023-04-16T06:10:53.219Z,6.73
2023-04-16T06:13:19.687Z,6.72
2023-04-16T06:15:46.842Z,6.78
2023-04-16T06:18:13.530Z,6.77
2023-04-16T06:20:40.543Z,7.49
2023-04-16T06:23:07.046Z,7.78
2023-04-16T06:25:33.693Z,7.88
2023-04-16T06:28:00.302Z,8.24
2023-04-16T06:30:27.022Z,7.73
2023-04-16T06:32:53.727Z,8.54
2023-04-16T06:35:20.380Z,8.81
2023-04-16T06:37:47.323Z,8.90
2023-04-16T06:40:14.266Z,8.68
2023-04-16T06:42:41.851Z,9.02
2023-04-16T06:45:09.890Z,8.90
2023-04-16T06:47:36.510Z,8.55
2023-04-16T06:50:03.459Z,8.55
2023-04-16T06:52:30.347Z,8.43
2023-04-16T06:54:57.055Z,8.32
2023-04-16T06:57:23.824Z,8.66
2023-04-16T06:59:50.461Z,8.49
2023-04-16T07:02:17.329Z,8.71
2023-04-16T07:04:43.972Z,8.99
2023-04-16T07:07:10.476Z,9.39
2023-04-16T07:09:37.005Z,9.30
2023-04-16T07:12:03.815Z,9.86
2023-04-16T07:14:30.504Z,9.29
2023-04-16T07:16:57.265Z,9.27
2023-04-16T07:19:24.125Z,9.80
2023-04-16T07:21:51.318Z,9.30
2023-04-16T07:24:18.113Z,9.88
2023-04-16T07:26:44.625Z,10.25
2023-04-16T07:29:11.528Z,10.79
2023-04-16T07:31:38.544Z,10.63
2023-04-16T07:34:05.423Z,10.44
2023-04-16T07:36:32.249Z,10.61
2023-04-16T07:38:58.766Z,10.80
2023-04-16T07:41:25.488Z,10.81
2023-04-16T07:43:52.042Z,11.32
2023-04-16T07:46:18.586Z,11.51
2023-04-16T07:48:45.336Z,11.34
2023-04-16T07:51:12.290Z,11.34
2023-04-16T07:53:38.746Z,12.31
2023-04-16T07:56:05.574Z,12.82
2023-04-16T07:58:32.381Z,13.17
2023-04-16T08:00:59.073Z,12.66
2023-04-16T08:03:25.842Z,13.25
2023-04-16T08:05:52.816Z,12.69
2023-04-16T08:08:19.350Z,12.38
2023-04-16T08:10:46.302Z,13.36
2023-04-16T08:13:12.938Z,14.02
2023-04-16T08:15:40.777Z,13.57
2023-04-16T08:18:12.762Z,13.63
2023-04-16T08:20:39.505Z,14.47
2023-04-16T08:23:06.163Z,14.66
2023-04-16T08:25:32.726Z,14.86
2023-04-16T08:27:59.768Z,13.62
2023-04-16T08:30:26.442Z,14.60
2023-04-16T08:32:52.988Z,15.34
2023-04-16T08:35:19.652Z,16.00
2023-04-16T08:37:46.489Z,16.15
2023-04-16T08:40:13.332Z,16.21
2023-04-16T08:42:45.290Z,16.71
2023-04-16T08:45:17.327Z,16.83
2023-04-16T08:47:51.804Z,16.47
2023-04-16T08:50:28.323Z,16.25
2023-04-16T08:53:09.122Z,16.64
2023-04-16T08:55:38.528Z,16.82
2023-04-16T08:58:18.749Z,16.82
2023-04-16T09:00:46.489Z,16.85
2023-04-16T09:03:13.089Z,16.43
2023-04-16T09:05:40.202Z,16.71
2023-04-16T09:08:06.929Z,16.52
2023-04-16T09:10:34.637Z,16.10
2023-04-16T09:13:01.463Z,15.30
2023-04-16T09:15:29.438Z,15.69
2023-04-16T09:17:58.965Z,16.02
2023-04-16T09:20:26.079Z,16.56
2023-04-16T09:22:52.708Z,15.73
2023-04-16T09:25:20.986Z,16.15
2023-04-16T09:27:50.331Z,16.57
2023-04-16T09:30:24.711Z,16.89
2023-04-16T09:32:52.777Z,16.52
2023-04-16T09:35:19.962Z,16.56
2023-04-16T09:38:06.755Z,16.93
2023-04-16T09:40:33.497Z,17.26
2023-04-16T09:43:00.894Z,16.54
2023-04-16T09:45:31.699Z,17.06
2023-04-16T09:48:04.654Z,16.73
2023-04-16T09:50:31.410Z,16.88
2023-04-16T09:53:02.443Z,16.79
2023-04-16T09:55:29.172Z,16.38
2023-04-16T09:58:00.874Z,17.18
2023-04-16T10:00:29.198Z,17.60
2023-04-16T10:03:06.699Z,18.12
2023-04-16T10:05:33.853Z,17.85
2023-04-16T10:08:01.893Z,18.03
2023-04-16T10:10:29.133Z,17.09
2023-04-16T10:12:55.765Z,17.78
2023-04-16T10:15:22.830Z,17.36
2023-04-16T10:17:50.372Z,17.63
2023-04-16T10:20:18.378Z,17.56
2023-04-16T10:22:45.235Z,17.71
2023-04-16T10:25:12.896Z,16.34
2023-04-16T10:27:40.376Z,17.48
2023-04-16T10:30:08.619Z,17.85
2023-04-16T10:32:36.327Z,17.45
2023-04-16T10:35:02.962Z,16.56
2023-04-16T10:37:31.288Z,16.94
2023-04-16T10:40:00.945Z,17.29
2023-04-16T10:42:28.054Z,16.96
2023-04-16T10:44:54.616Z,16.14
2023-04-16T10:47:24.541Z,17.10
2023-04-16T10:49:51.880Z,17.09
2023-04-16T10:52:18.586Z,16.67
2023-04-16T10:54:46.736Z,17.09
2023-04-16T10:57:18.272Z,17.09
2023-04-16T10:59:45.310Z,16.16
2023-04-16T11:02:17.932Z,16.77
2023-04-16T11:04:50.021Z,17.37
2023-04-16T11:07:19.170Z,17.98
2023-04-16T11:10:04.128Z,17.93
2023-04-16T11:12:40.376Z,17.48
2023-04-16T11:15:09.301Z,16.91
2023-04-16T11:17:52.831Z,18.41
2023-04-16T11:20:23.969Z,18.04
2023-04-16T11:22:52.172Z,19.27
2023-04-16T11:25:22.894Z,19.75
2023-04-16T11:27:50.082Z,20.31
2023-04-16T11:30:18.660Z,19.03
2023-04-16T11:32:46.020Z,17.33
2023-04-16T11:35:17.704Z,17.57
2023-04-16T11:37:45.422Z,16.43
2023-04-16T11:40:12.710Z,17.10
2023-04-16T11:42:40.846Z,17.36
2023-04-16T11:45:09.606Z,18.27
2023-04-16T11:47:46.954Z,19.39
2023-04-16T11:50:31.390Z,18.51
2023-04-16T11:53:03.755Z,19.31
2023-04-16T11:55:31.147Z,18.11
2023-04-16T11:57:57.765Z,17.78
2023-04-16T12:00:25.030Z,18.25
2023-04-16T12:02:53.548Z,18.19
2023-04-16T12:05:31.340Z,18.82
2023-04-16T12:07:58.996Z,18.69
2023-04-16T12:10:27.084Z,19.00
2023-04-16T12:12:54.841Z,18.72
2023-04-16T12:15:21.585Z,18.16
2023-04-16T12:17:48.750Z,17.94
2023-04-16T12:20:15.771Z,17.97
2023-04-16T12:22:47.377Z,17.63
2023-04-16T12:25:15.980Z,17.58
2023-04-16T12:27:47.030Z,17.89
2023-04-16T12:30:21.133Z,18.27
2023-04-16T12:32:50.569Z,18.33
2023-04-16T12:35:31.548Z,18.24
2023-04-16T12:37:58.414Z,18.31
2023-04-16T12:40:24.987Z,17.96
2023-04-16T12:42:51.515Z,17.82
2023-04-16T12:45:18.499Z,18.37
2023-04-16T12:47:45.054Z,18.64
2023-04-16T12:50:11.868Z,18.44
2023-04-16T12:52:38.496Z,18.55
2023-04-16T12:55:05.651Z,18.75
2023-04-16T12:57:32.296Z,18.63
2023-04-16T12:59:59.211Z,18.63
2023-04-16T13:02:26.265Z,18.93
2023-04-16T13:04:54.118Z,18.74
2023-04-16T13:07:21.223Z,17.91
2023-04-16T13:09:48.664Z,18.30
2023-04-16T13:12:15.646Z,19.05
2023-04-16T13:14:44.619Z,18.91
2023-04-16T13:17:11.752Z,17.96
2023-04-16T13:19:38.306Z,18.32
2023-04-16T13:22:05.042Z,18.28
2023-04-16T13:24:32.016Z,17.89
2023-04-16T13:26:58.596Z,17.66
2023-04-16T13:29:25.049Z,17.28
2023-04-16T13:31:52.051Z,16.99
2023-04-16T13:34:18.593Z,16.66
2023-04-16T13:36:45.270Z,16.57
2023-04-16T13:39:11.988Z,16.38
2023-04-16T13:41:38.830Z,16.23
2023-04-16T13:44:06.389Z,15.96
2023-04-16T13:46:33.382Z,15.85
2023-04-16T13:48:59.989Z,15.95
2023-04-16T13:51:27.734Z,15.41
2023-04-16T13:53:55.896Z,15.32
2023-04-16T13:56:22.704Z,15.31
2023-04-16T13:58:49.505Z,15.13
2023-04-16T14:01:17.354Z,15.34
2023-04-16T14:03:44.253Z,15.38
2023-04-16T14:06:10.962Z,15.48
2023-04-16T14:08:38.292Z,15.59
2023-04-16T14:11:06.432Z,15.52
2023-04-16T14:13:33.099Z,15.52
2023-04-16T14:15:59.909Z,15.10
2023-04-16T14:18:26.481Z,15.00
2023-04-16T14:20:53.317Z,14.74
2023-04-16T14:23:20.104Z,14.95
2023-04-16T14:25:46.755Z,15.20
2023-04-16T14:28:15.458Z,15.49
2023-04-16T14:30:42.330Z,15.51
2023-04-16T14:33:08.894Z,15.53
2023-04-16T14:35:36.066Z,15.07
2023-04-16T14:38:02.821Z,15.08
2023-04-16T14:40:29.553Z,14.80
2023-04-16T14:42:56.246Z,14.82
2023-04-16T14:45:22.868Z,14.70
2023-04-16T14:47:50.752Z,14.70
2023-04-16T14:50:17.394Z,14.57
2023-04-16T14:52:43.801Z,14.53
2023-04-16T14:55:10.729Z,14.52
2023-04-16T14:57:38.450Z,14.50
2023-04-16T15:00:10.381Z,14.55
2023-04-16T15:02:37.521Z,14.36
2023-04-16T15:05:04.467Z,14.35
2023-04-16T15:07:31.565Z,14.28
2023-04-16T15:09:58.917Z,14.61
2023-04-16T15:12:26.463Z,14.41
2023-04-16T15:14:53.014Z,14.40
2023-04-16T15:17:20.417Z,14.31
2023-04-16T15:19:47.596Z,14.29
2023-04-16T15:22:14.781Z,14.20
2023-04-16T15:24:41.309Z,14.23
2023-04-16T15:27:11.583Z,13.97
2023-04-16T15:29:38.872Z,13.82
2023-04-16T15:32:06.929Z,13.69
2023-04-16T15:34:33.537Z,13.59
2023-04-16T15:37:00.415Z,13.49
2023-04-16T15:39:27.082Z,13.46
2023-04-16T15:42:01.596Z,13.16
2023-04-16T15:44:31.024Z,13.05
2023-04-16T15:46:57.528Z,13.07
2023-04-16T15:49:24.780Z,13.09
2023-04-16T15:51:52.270Z,13.14
2023-04-16T15:54:19.150Z,13.35
2023-04-16T15:56:46.595Z,13.46
2023-04-16T15:59:13.634Z,13.43
2023-04-16T16:01:40.523Z,13.28
2023-04-16T16:04:07.981Z,13.08
2023-04-16T16:06:35.029Z,13.12
2023-04-16T16:09:01.842Z,13.08
2023-04-16T16:11:28.676Z,13.11
2023-04-16T16:13:55.440Z,13.20
2023-04-16T16:16:22.051Z,13.25
2023-04-16T16:18:48.792Z,13.18
2023-04-16T16:21:15.692Z,13.20
2023-04-16T16:23:42.331Z,13.13
2023-04-16T16:26:09.255Z,13.15
2023-04-16T16:28:37.682Z,13.02
2023-04-16T16:31:06.090Z,12.93
2023-04-16T16:33:33.140Z,12.90
2023-04-16T16:35:59.736Z,12.63
2023-04-16T16:38:26.265Z,12.66
2023-04-16T16:40:52.774Z,12.47
2023-04-16T16:43:20.255Z,12.53
2023-04-16T16:45:47.189Z,12.36
2023-04-16T16:48:13.759Z,12.39
2023-04-16T16:50:40.356Z,12.35
2023-04-16T16:53:06.908Z,12.21
2023-04-16T16:55:35.148Z,12.15
2023-04-16T16:58:01.803Z,12.09
2023-04-16T17:00:28.525Z,12.21
2023-04-16T17:02:55.198Z,12.05
2023-04-16T17:05:21.992Z,12.06
2023-04-16T17:07:48.547Z,11.93
2023-04-16T17:10:20.212Z,11.73
2023-04-16T17:12:51.060Z,11.78
2023-04-16T17:15:20.690Z,11.77
2023-04-16T17:17:48.504Z,11.82
2023-04-16T17:20:15.725Z,11.70
2023-04-16T17:22:42.664Z,11.73
2023-04-16T17:25:09.552Z,11.72
2023-04-16T17:27:36.236Z,11.72
2023-04-16T17:30:04.990Z,11.67
2023-04-16T17:32:32.585Z,11.55
2023-04-16T17:35:00.988Z,11.32
2023-04-16T17:37:27.782Z,11.25
2023-04-16T17:39:54.551Z,11.25
2023-04-16T17:42:21.676Z,11.27
2023-04-16T17:44:48.329Z,11.13
2023-04-16T17:47:15.070Z,11.13
2023-04-16T17:49:41.676Z,11.07
2023-04-16T17:52:08.307Z,10.96
2023-04-16T17:54:35.335Z,10.97
2023-04-16T17:57:02.235Z,10.86
2023-04-16T17:59:28.918Z,10.86
2023-04-16T18:01:56.776Z,10.85
2023-04-16T18:04:23.663Z,10.86
2023-04-16T18:06:50.791Z,10.87
2023-04-16T18:09:19.074Z,10.80
2023-04-16T18:11:45.669Z,10.81
2023-04-16T18:14:16.740Z,10.78
2023-04-16T18:16:43.845Z,10.83
2023-04-16T18:19:11.370Z,10.81
2023-04-16T18:21:37.946Z,10.72
2023-04-16T18:24:05.419Z,10.71
2023-04-16T18:26:35.639Z,10.69
2023-04-16T18:29:03.092Z,10.65
2023-04-16T18:31:30.384Z,10.67
2023-04-16T18:33:58.251Z,10.57
2023-04-16T18:36:26.810Z,10.57
2023-04-16T18:39:01.772Z,10.61
2023-04-16T18:41:30.792Z,10.59
2023-04-16T18:43:57.513Z,10.49
2023-04-16T18:46:24.331Z,10.53
2023-04-16T18:48:50.935Z,10.56
2023-04-16T18:51:17.712Z,10.54
2023-04-16T18:53:45.763Z,10.50
2023-04-16T18:56:12.587Z,10.54
2023-04-16T18:58:39.075Z,10.44
2023-04-16T19:01:10.838Z,10.47
2023-04-16T19:03:38.560Z,10.50
2023-04-16T19:06:05.939Z,10.49
2023-04-16T19:08:32.532Z,10.51
2023-04-16T19:10:59.135Z,10.45
2023-04-16T19:13:25.593Z,10.46
2023-04-16T19:15:57.628Z,10.37
2023-04-16T19:18:24.255Z,10.38
2023-04-16T19:20:50.830Z,10.33
2023-04-16T19:23:17.437Z,10.38
2023-04-16T19:25:44.003Z,10.23
2023-04-16T19:28:10.577Z,10.20
2023-04-16T19:30:37.110Z,10.16
2023-04-16T19:33:03.680Z,10.05
2023-04-16T19:35:30.650Z,10.07
2023-04-16T19:37:58.030Z,10.14
2023-04-16T19:40:24.577Z,10.01
2023-04-16T19:42:51.040Z,10.07
2023-04-16T19:45:18.393Z,10.22
2023-04-16T19:47:45.495Z,10.10
2023-04-16T19:50:12.308Z,10.17
2023-04-16T19:52:39.092Z,10.21
2023-04-16T19:55:07.016Z,10.13
2023-04-16T19:57:33.622Z,10.08
2023-04-16T20:00:00.433Z,9.96
2023-04-16T20:02:27.169Z,10.03
2023-04-16T20:04:53.817Z,10.08
2023-04-16T20:07:20.604Z,10.07
2023-04-16T20:09:47.088Z,10.03
2023-04-16T20:12:14.273Z,10.02
2023-04-16T20:14:41.900Z,10.04
2023-04-16T20:17:09.976Z,10.02
2023-04-16T20:19:40.120Z,10.01
2023-04-16T20:22:07.054Z,10.01
2023-04-16T20:24:34.320Z,10.03
2023-04-16T20:27:01.766Z,10.04
2023-04-16T20:29:28.344Z,10.01
2023-04-16T20:31:54.818Z,10.00
2023-04-16T20:34:21.554Z,10.02
2023-04-16T20:36:48.397Z,10.01
2023-04-16T20:39:20.157Z,10.07
2023-04-16T20:41:56.549Z,10.07
2023-04-16T20:44:26.398Z,9.98
2023-04-16T20:46:54.863Z,9.91
2023-04-16T20:49:21.578Z,9.82
2023-04-16T20:51:48.034Z,9.88
2023-04-16T20:54:14.468Z,9.75
2023-04-16T20:56:40.895Z,9.70
2023-04-16T20:59:07.283Z,9.82
2023-04-16T21:01:33.791Z,9.77
2023-04-16T21:04:01.561Z,9.62
2023-04-16T21:06:28.198Z,9.61
2023-04-16T21:08:54.636Z,9.68
2023-04-16T21:11:21.058Z,9.68
2023-04-16T21:13:47.489Z,9.74
2023-04-16T21:16:13.997Z,9.73
2023-04-16T21:18:40.695Z,9.74
2023-04-16T21:21:07.240Z,9.71
2023-04-16T21:23:33.603Z,9.75
2023-04-16T21:26:00.095Z,9.72
2023-04-16T21:28:26.598Z,9.79
2023-04-16T21:30:53.693Z,9.78
2023-04-16T21:33:20.578Z,9.82
2023-04-16T21:35:56.028Z,9.80
2023-04-16T21:38:22.737Z,9.78
2023-04-16T21:40:51.246Z,9.76
2023-04-16T21:43:17.931Z,9.62
2023-04-16T21:45:44.429Z,9.61
2023-04-16T21:48:11.033Z,9.65
2023-04-16T21:50:37.808Z,9.71
2023-04-16T21:53:06.290Z,9.74
2023-04-16T21:55:34.636Z,9.66
2023-04-16T21:58:01.689Z,9.69
2023-04-16T22:00:28.309Z,9.72
2023-04-16T22:02:56.145Z,9.57
2023-04-16T22:05:26.024Z,9.59
2023-04-16T22:07:53.922Z,9.54
2023-04-16T22:10:20.632Z,9.60
2023-04-16T22:12:47.138Z,9.65
2023-04-16T22:15:14.106Z,9.57
2023-04-16T22:17:41.071Z,9.58
2023-04-16T22:20:14.084Z,9.52
2023-04-16T22:22:41.840Z,9.49
2023-04-16T22:25:09.367Z,9.46
2023-04-16T22:27:36.262Z,9.45
2023-04-16T22:30:03.906Z,9.46
2023-04-16T22:32:30.940Z,9.52
2023-04-16T22:34:57.608Z,9.52
2023-04-16T22:37:24.180Z,9.48
2023-04-16T22:39:50.784Z,9.37
2023-04-16T22:42:17.268Z,9.41
2023-04-16T22:44:43.623Z,9.35
2023-04-16T22:47:10.113Z,9.40
2023-04-16T22:49:36.489Z,9.37
2023-04-16T22:52:03.208Z,9.41
2023-04-16T22:54:30.463Z,9.40
2023-04-16T22:56:57.573Z,9.36
2023-04-16T22:59:24.519Z,9.31
2023-04-16T23:01:51.360Z,9.31
2023-04-16T23:04:18.166Z,9.33
2023-04-16T23:06:44.619Z,9.36
2023-04-16T23:09:11.220Z,9.28
2023-04-16T23:11:37.785Z,9.31
2023-04-16T23:14:05.068Z,9.22
2023-04-16T23:16:32.087Z,9.28
2023-04-16T23:18:58.824Z,9.28
2023-04-16T23:21:29.729Z,9.30
2023-04-16T23:23:57.212Z,9.27
2023-04-16T23:26:23.916Z,9.27
2023-04-16T23:28:50.806Z,9.34
2023-04-16T23:31:18.753Z,9.34
2023-04-16T23:33:45.569Z,9.35
2023-04-16T23:36:12.202Z,9.36
2023-04-16T23:38:38.885Z,9.31
2023-04-16T23:41:05.901Z,9.29
2023-04-16T23:43:32.538Z,9.30
2023-04-16T23:45:59.250Z,9.20
2023-04-16T23:48:25.938Z,9.20
2023-04-16T23:50:52.421Z,9.27
2023-04-16T23:53:18.893Z,9.24
2023-04-16T23:55:45.607Z,9.20
2023-04-16T23:58:12.256Z,9.21
